Lawton, MI (49065)

7:50 PM EDT on September 28, 2016 (GMT -0400)
APRSWXNET | | Change Station

Elev 919 ft 42.17 °N, 85.82 °W | Updated 31 minutes ago

Overcast
Overcast
56 °F
Feels Like 56 °F
N
5
Wind Variable Wind from NNE
Gusts 13.0 mph

Today
High -- | Low -- °F
--% Chance of Precip.
Yesterday
High -- | Low -- °F
Precip. -- in
Pressure 30.00 in
Visibility 10.0 miles
Clouds Scattered Clouds 2400 ft
Overcast 3300 ft
Dew Point 52 °F
Humidity 86%
Rainfall in
Snow Depth Not available.
7:37 AM 7:29 PM
Waning Crescent, 4% visible
METAR KAZO 282253Z 02007KT 10SM SCT024 OVC033 14/10 A2999 RMK AO2 RAE04 SLP157 P0000 T01390100
Pressure 30.00 in
Visibility 10.0 miles
Clouds Scattered Clouds 2400 ft
Overcast 3300 ft
Dew Point 52 °F
Humidity 86%
Rainfall in
Snow Depth Not available.
7:37 AM 7:29 PM
Waning Crescent, 4% visible
METAR KAZO 282253Z 02007KT 10SM SCT024 OVC033 14/10 A2999 RMK AO2 RAE04 SLP157 P0000 T01390100

10-Day Weather Forecast

Almanac

Astronomy

Sep. 28, 2016 Rise Set
Actual Time
Civil Twilight
Nautical Twilight
Astronomical Twilight
Moon
Length of Visible Light
Length of Day
Tomorrow will be .
, % of the Moon is Illuminated

Today's Extremes

State Highs State Lows

Community

WunderPhotos

Upload Photos

1,942,354 photos uploaded!

WunderBlog® & News

Nearby

Air Quality

  Air Quality AQ Index Pollutant
Not available.

Snow Depth

Station Depth Elevation

Earthquake Activity

City Distance Mag. Time & Date
Minimum magnitude displayed is 2.5.

Coastal Water Temperatures

Place Temperature

Stations

Nearby Weather Stations

Station Location Temp. Windchill Dew Point Humidity Wind Precip. Elev Updated Type
                   

Watches & Warnings

There are currently no watches in effect.